createdAt,value
2023-03-11T00:00:48.974Z,7.82
2023-03-11T00:03:29.098Z,7.85
2023-03-11T00:05:58.839Z,7.91
2023-03-11T00:08:26.825Z,7.94
2023-03-11T00:10:56.709Z,8.00
2023-03-11T00:13:24.982Z,8.02
2023-03-11T00:16:00.521Z,8.03
2023-03-11T00:18:31.698Z,8.01
2023-03-11T00:21:01.242Z,8.03
2023-03-11T00:23:29.739Z,8.06
2023-03-11T00:25:59.952Z,8.11
2023-03-11T00:28:28.082Z,8.14
2023-03-11T00:30:56.136Z,8.14
2023-03-11T00:33:24.189Z,8.13
2023-03-11T00:35:52.192Z,8.15
2023-03-11T00:38:21.617Z,8.16
2023-03-11T00:40:50.179Z,8.21
2023-03-11T00:43:18.502Z,8.24
2023-03-11T00:45:52.242Z,8.25
2023-03-11T00:51:54.475Z,8.24
2023-03-11T00:55:03.347Z,8.25
2023-03-11T00:57:36.959Z,8.30
2023-03-11T01:00:16.308Z,8.31
2023-03-11T01:02:49.616Z,8.30
2023-03-11T01:05:30.705Z,8.31
2023-03-11T01:08:22.635Z,8.32
2023-03-11T01:11:08.788Z,8.34
2023-03-11T01:13:43.733Z,8.36
2023-03-11T01:16:16.701Z,8.34
2023-03-11T01:18:52.522Z,8.28
2023-03-11T01:21:26.100Z,8.26
2023-03-11T01:24:18.523Z,8.21
2023-03-11T01:26:51.508Z,8.15
2023-03-11T01:29:25.113Z,8.14
2023-03-11T01:32:19.682Z,8.17
2023-03-11T01:38:30.324Z,8.14
2023-03-11T01:41:04.337Z,8.11
2023-03-11T01:43:57.030Z,8.08
2023-03-11T01:56:45.633Z,8.06
2023-03-11T01:59:54.342Z,8.02
2023-03-11T02:05:40.369Z,7.93
2023-03-11T02:08:15.567Z,7.90
2023-03-11T02:10:51.235Z,7.78
2023-03-11T02:13:24.366Z,7.70
2023-03-11T02:16:00.794Z,7.65
2023-03-11T02:18:50.150Z,7.59
2023-03-11T02:21:32.963Z,7.46
2023-03-11T02:24:35.893Z,7.36
2023-03-11T02:27:12.812Z,7.24
2023-03-11T02:29:51.635Z,7.20
2023-03-11T02:32:30.553Z,7.11
2023-03-11T02:35:23.447Z,7.07
2023-03-11T02:41:30.088Z,6.96
2023-03-11T02:44:03.934Z,6.95
2023-03-11T02:46:41.623Z,6.93
2023-03-11T02:49:10.928Z,6.90
2023-03-11T02:51:39.567Z,6.85
2023-03-11T02:54:08.022Z,6.81
2023-03-11T02:56:36.623Z,6.74
2023-03-11T02:59:05.009Z,6.68
2023-03-11T03:01:33.047Z,6.58
2023-03-11T03:04:01.191Z,6.51
2023-03-11T03:06:32.992Z,6.47
2023-03-11T03:09:01.053Z,6.43
2023-03-11T03:11:29.122Z,6.43
2023-03-11T03:13:57.623Z,6.37
2023-03-11T03:16:31.433Z,6.33
2023-03-11T03:19:05.077Z,6.27
2023-03-11T03:21:33.159Z,6.27
2023-03-11T03:24:01.267Z,6.27
2023-03-11T03:26:29.212Z,6.23
2023-03-11T03:28:57.705Z,6.20
2023-03-11T03:31:25.746Z,6.13
2023-03-11T03:33:53.786Z,6.11
2023-03-11T03:36:21.860Z,6.10
2023-03-11T03:39:30.406Z,6.09
2023-03-11T03:41:58.828Z,6.03
2023-03-11T03:44:28.118Z,5.96
2023-03-11T03:46:56.141Z,5.96
2023-03-11T03:49:24.114Z,5.96
2023-03-11T03:51:52.560Z,5.95
2023-03-11T03:54:33.421Z,5.92
2023-03-11T03:57:06.660Z,5.87
2023-03-11T03:59:37.401Z,5.86
2023-03-11T04:02:05.819Z,5.87
2023-03-11T04:04:36.751Z,5.84
2023-03-11T04:07:10.657Z,5.83
2023-03-11T04:09:40.664Z,5.78
2023-03-11T04:12:15.713Z,5.72
2023-03-11T04:14:44.493Z,5.67
2023-03-11T04:17:13.523Z,5.61
2023-03-11T04:19:41.694Z,5.51
2023-03-11T04:22:11.406Z,5.45
2023-03-11T04:24:40.138Z,5.36
2023-03-11T04:27:08.141Z,5.29
2023-03-11T04:29:37.711Z,5.29
2023-03-11T04:32:05.994Z,5.21
2023-03-11T04:34:34.471Z,5.17
2023-03-11T04:37:02.696Z,5.14
2023-03-11T04:39:33.007Z,5.09
2023-03-11T04:42:03.872Z,5.03
2023-03-11T04:44:37.840Z,4.99
2023-03-11T04:47:11.518Z,4.94
2023-03-11T04:49:40.076Z,4.88
2023-03-11T04:52:08.163Z,4.81
2023-03-11T04:54:42.344Z,4.68
2023-03-11T04:57:15.863Z,4.42
2023-03-11T04:59:49.706Z,4.28
2023-03-11T05:02:18.648Z,4.22
2023-03-11T05:05:26.449Z,4.09
2023-03-11T05:08:00.127Z,3.94
2023-03-11T05:10:47.369Z,3.87
2023-03-11T05:13:21.849Z,3.85
2023-03-11T05:15:56.009Z,3.82
2023-03-11T05:18:32.611Z,3.76
2023-03-11T05:21:00.947Z,3.73
2023-03-11T05:23:30.193Z,3.70
2023-03-11T05:26:06.006Z,3.71
2023-03-11T05:28:39.707Z,3.68
2023-03-11T05:31:13.713Z,3.67
2023-03-11T05:33:50.238Z,3.62
2023-03-11T05:36:25.541Z,3.58
2023-03-11T05:38:53.712Z,3.62
2023-03-11T05:41:28.060Z,3.63
2023-03-11T05:44:02.103Z,3.53
2023-03-11T05:47:01.492Z,3.47
2023-03-11T05:49:29.918Z,3.40
2023-03-11T05:52:06.312Z,3.39
2023-03-11T05:54:34.632Z,3.35
2023-03-11T05:57:02.761Z,3.26
2023-03-11T05:59:32.578Z,3.19
2023-03-11T06:02:03.982Z,3.14
2023-03-11T06:04:38.037Z,3.07
2023-03-11T06:07:13.233Z,3.03
2023-03-11T06:09:41.382Z,2.88
2023-03-11T06:12:12.625Z,2.76
2023-03-11T06:15:13.018Z,2.64
2023-03-11T06:17:41.222Z,2.51
2023-03-11T06:20:10.128Z,2.44
2023-03-11T06:22:40.150Z,2.37
2023-03-11T06:25:09.270Z,2.34
2023-03-11T06:27:47.884Z,2.12
2023-03-11T06:30:16.318Z,2.01
2023-03-11T06:32:52.535Z,1.87
2023-03-11T06:35:21.244Z,1.76
2023-03-11T06:37:49.206Z,1.67
2023-03-11T06:40:22.707Z,1.61
2023-03-11T06:42:50.728Z,1.55
2023-03-11T06:45:25.066Z,1.49
2023-03-11T06:47:59.103Z,1.48
2023-03-11T06:50:35.532Z,1.39
2023-03-11T06:53:34.524Z,1.36
2023-03-11T06:56:13.483Z,1.38
2023-03-11T06:59:19.262Z,1.37
2023-03-11T07:01:47.639Z,1.31
2023-03-11T07:04:24.137Z,1.27
2023-03-11T07:07:41.630Z,1.21
2023-03-11T07:10:11.289Z,1.13
2023-03-11T07:12:39.524Z,1.12
2023-03-11T07:15:16.301Z,1.04
2023-03-11T07:17:44.514Z,1.01
2023-03-11T07:20:13.001Z,1.01
2023-03-11T07:22:40.979Z,0.98
2023-03-11T07:25:09.266Z,1.04
2023-03-11T07:27:37.377Z,1.00
2023-03-11T07:30:05.885Z,0.99
2023-03-11T07:32:33.863Z,1.04
2023-03-11T07:35:01.967Z,1.09
2023-03-11T07:37:30.071Z,1.09
2023-03-11T07:39:58.147Z,1.10
2023-03-11T07:42:26.261Z,1.12
2023-03-11T07:44:55.212Z,1.08
2023-03-11T07:47:24.818Z,1.05
2023-03-11T07:49:57.324Z,1.01
2023-03-11T07:52:25.290Z,1.01
2023-03-11T07:54:56.736Z,0.99
2023-03-11T07:57:27.905Z,0.98
2023-03-11T07:59:55.951Z,0.98
2023-03-11T08:02:24.194Z,0.95
2023-03-11T08:04:52.150Z,0.94
2023-03-11T08:07:21.044Z,0.98
2023-03-11T08:09:49.303Z,0.97
2023-03-11T08:12:17.374Z,0.99
2023-03-11T08:14:45.395Z,0.96
2023-03-11T08:17:13.460Z,0.94
2023-03-11T08:19:41.328Z,0.85
2023-03-11T08:22:09.244Z,0.84
2023-03-11T08:24:37.377Z,0.83
2023-03-11T08:27:05.785Z,0.77
2023-03-11T08:29:34.027Z,0.80
2023-03-11T08:32:03.943Z,0.80
2023-03-11T08:34:33.042Z,0.82
2023-03-11T08:37:01.616Z,0.83
2023-03-11T08:39:29.562Z,0.80
2023-03-11T08:41:57.560Z,0.82
2023-03-11T08:44:25.481Z,0.83
2023-03-11T08:46:53.594Z,0.82
2023-03-11T08:49:24.014Z,0.81
2023-03-11T08:51:54.122Z,0.83
2023-03-11T08:54:22.446Z,0.88
2023-03-11T08:56:52.735Z,0.90
2023-03-11T08:59:20.800Z,0.85
2023-03-11T09:01:48.875Z,0.80
2023-03-11T09:04:17.080Z,0.83
2023-03-11T09:06:45.252Z,0.88
2023-03-11T09:09:13.420Z,0.84
2023-03-11T09:11:42.094Z,0.84
2023-03-11T09:14:10.056Z,0.86
2023-03-11T09:16:38.148Z,0.87
2023-03-11T09:19:07.813Z,0.88
2023-03-11T09:21:37.114Z,0.86
2023-03-11T09:24:06.028Z,0.87
2023-03-11T09:26:34.127Z,0.81
2023-03-11T09:29:02.209Z,0.76
2023-03-11T09:31:30.420Z,0.74
2023-03-11T09:33:58.538Z,0.72
2023-03-11T09:36:26.576Z,0.70
2023-03-11T09:38:54.712Z,0.65
2023-03-11T09:41:55.261Z,0.56
2023-03-11T09:44:42.408Z,0.43
2023-03-11T09:47:25.594Z,0.36
2023-03-11T09:50:15.254Z,0.34
2023-03-11T09:52:45.203Z,0.33
2023-03-11T09:55:34.202Z,0.38
2023-03-11T09:58:09.939Z,0.37
2023-03-11T10:00:38.244Z,0.30
2023-03-11T10:03:15.616Z,0.27
2023-03-11T10:05:45.442Z,0.21
2023-03-11T10:08:24.162Z,0.16
2023-03-11T10:11:13.092Z,0.12
2023-03-11T10:14:25.123Z,0.05
2023-03-11T10:16:57.574Z,0.01
2023-03-11T10:19:52.084Z,-0.05
2023-03-11T10:22:27.917Z,-0.11
2023-03-11T10:25:05.572Z,-0.16
2023-03-11T10:27:49.141Z,-0.15
2023-03-11T10:30:45.512Z,-0.17
2023-03-11T10:33:25.630Z,-0.22
2023-03-11T10:35:56.963Z,-0.23
2023-03-11T10:38:35.494Z,-0.22
2023-03-11T10:41:11.216Z,-0.23
2023-03-11T10:43:45.219Z,-0.24
2023-03-11T10:46:21.292Z,-0.19
2023-03-11T10:48:49.357Z,-0.21
2023-03-11T10:51:23.005Z,-0.21
2023-03-11T10:53:53.897Z,-0.21
2023-03-11T10:56:36.265Z,-0.20
2023-03-11T10:59:06.519Z,-0.23
2023-03-11T11:01:34.613Z,-0.25
2023-03-11T11:04:02.859Z,-0.24
2023-03-11T11:06:37.558Z,-0.25
2023-03-11T11:09:21.293Z,-0.26
2023-03-11T11:12:12.306Z,-0.25
2023-03-11T11:14:52.075Z,-0.26
2023-03-11T11:17:25.964Z,-0.25
2023-03-11T11:19:56.988Z,-0.23
2023-03-11T11:22:25.987Z,-0.20
2023-03-11T11:24:56.013Z,-0.24
2023-03-11T11:27:26.730Z,-0.31
2023-03-11T11:30:09.851Z,-0.25
2023-03-11T11:32:38.352Z,-0.27
2023-03-11T11:35:07.946Z,-0.26
2023-03-11T11:37:39.603Z,-0.26
2023-03-11T11:40:30.005Z,-0.28
2023-03-11T11:43:12.198Z,-0.28
2023-03-11T11:45:42.952Z,-0.29
2023-03-11T11:48:22.803Z,-0.30
2023-03-11T11:51:15.459Z,-0.27
2023-03-11T11:53:57.741Z,-0.28
2023-03-11T11:56:26.960Z,-0.36
2023-03-11T11:58:55.626Z,-0.37
2023-03-11T12:01:37.088Z,-0.40
2023-03-11T12:04:31.775Z,-0.45
2023-03-11T12:07:08.478Z,-0.48
2023-03-11T12:09:43.599Z,-0.63
2023-03-11T12:12:33.126Z,-0.69
2023-03-11T12:15:21.150Z,-0.69
2023-03-11T12:17:52.123Z,-0.65
2023-03-11T12:20:56.262Z,-0.64
2023-03-11T12:23:43.018Z,-0.62
2023-03-11T12:26:20.278Z,-0.62
2023-03-11T12:28:57.732Z,-0.65
2023-03-11T12:31:32.101Z,-0.65
2023-03-11T12:34:03.320Z,-0.65
2023-03-11T12:36:34.777Z,-0.63
2023-03-11T12:39:06.189Z,-0.61
2023-03-11T12:41:41.344Z,-0.59
2023-03-11T12:44:39.416Z,-0.61
2023-03-11T12:47:35.682Z,-0.64
2023-03-11T12:50:43.768Z,-0.66
2023-03-11T12:53:18.101Z,-0.66
2023-03-11T12:56:40.587Z,-0.72
2023-03-11T12:59:45.493Z,-0.70
2023-03-11T13:02:54.825Z,-0.76
2023-03-11T13:05:59.676Z,-0.74
2023-03-11T13:08:34.334Z,-0.67
2023-03-11T13:11:34.209Z,-0.71
2023-03-11T13:14:23.963Z,-0.73
2023-03-11T13:16:52.168Z,-0.76
2023-03-11T13:19:55.657Z,-0.75
2023-03-11T13:22:42.629Z,-0.76
2023-03-11T13:25:49.930Z,-0.76
2023-03-11T13:28:44.351Z,-0.75
2023-03-11T13:31:38.464Z,-0.78
2023-03-11T13:34:38.540Z,-0.79
2023-03-11T13:37:31.176Z,-0.80
2023-03-11T13:40:02.551Z,-0.79
2023-03-11T13:42:35.748Z,-0.81
2023-03-11T13:45:06.945Z,-0.83
2023-03-11T13:47:36.856Z,-0.87
2023-03-11T13:50:22.881Z,-0.90
2023-03-11T13:52:53.871Z,-0.86
2023-03-11T13:55:28.128Z,-0.87
2023-03-11T13:57:57.482Z,-0.95
2023-03-11T14:00:29.074Z,-0.97
2023-03-11T14:03:01.360Z,-1.00
2023-03-11T14:05:35.419Z,-1.04
2023-03-11T14:08:13.662Z,-1.06
2023-03-11T14:10:52.207Z,-1.09
2023-03-11T14:13:20.816Z,-1.07
2023-03-11T14:15:57.669Z,-1.07
2023-03-11T14:18:30.555Z,-1.06
2023-03-11T14:20:59.687Z,-1.04
2023-03-11T14:23:33.377Z,-1.01
2023-03-11T14:26:05.387Z,-1.05
2023-03-11T14:28:37.220Z,-1.09
2023-03-11T14:31:05.792Z,-1.10
2023-03-11T14:33:33.728Z,-1.08
2023-03-11T14:36:11.409Z,-1.04
2023-03-11T14:38:43.821Z,-0.98
2023-03-11T14:41:15.634Z,-0.98
2023-03-11T14:43:49.318Z,-1.00
2023-03-11T14:46:25.760Z,-1.00
2023-03-11T14:48:56.467Z,-0.98
2023-03-11T14:51:31.944Z,-0.94
2023-03-11T14:54:08.577Z,-0.88
2023-03-11T14:56:42.175Z,-0.85
2023-03-11T14:59:29.127Z,-0.82
2023-03-11T15:02:03.112Z,-0.84
2023-03-11T15:04:34.550Z,-0.87
2023-03-11T15:07:04.685Z,-0.88
2023-03-11T15:09:33.167Z,-0.91
2023-03-11T15:12:04.341Z,-0.92
2023-03-11T15:14:38.054Z,-0.95
2023-03-11T15:17:41.334Z,-0.97
2023-03-11T15:20:24.567Z,-0.99
2023-03-11T15:23:00.715Z,-1.00
2023-03-11T15:25:38.838Z,-1.00
2023-03-11T15:28:27.547Z,-1.00
2023-03-11T15:31:15.689Z,-1.01
2023-03-11T15:33:44.478Z,-0.99
2023-03-11T15:36:31.195Z,-0.99
2023-03-11T15:39:15.268Z,-0.98
2023-03-11T15:41:57.673Z,-0.98
2023-03-11T15:44:30.938Z,-0.97
2023-03-11T15:47:01.977Z,-0.98
2023-03-11T15:49:30.470Z,-0.99
2023-03-11T15:52:00.060Z,-1.00
2023-03-11T15:54:28.788Z,-0.99
2023-03-11T15:56:58.612Z,-0.98
2023-03-11T15:59:28.026Z,-0.97
2023-03-11T16:01:56.049Z,-0.99
2023-03-11T16:04:24.248Z,-1.00
2023-03-11T16:07:07.144Z,-1.05
2023-03-11T16:09:36.270Z,-1.07
2023-03-11T16:12:14.195Z,-1.07
2023-03-11T16:14:42.326Z,-1.07
2023-03-11T16:17:14.273Z,-1.07
2023-03-11T16:19:43.114Z,-1.11
2023-03-11T16:22:31.143Z,-1.17
2023-03-11T16:25:00.048Z,-1.18
2023-03-11T16:27:28.303Z,-1.09
2023-03-11T16:29:56.693Z,-0.48
2023-03-11T16:32:24.773Z,-0.60
2023-03-11T16:34:52.671Z,-0.79
2023-03-11T16:37:21.266Z,-0.94
2023-03-11T16:39:49.159Z,-1.05
2023-03-11T16:42:26.167Z,-1.08
2023-03-11T16:44:54.025Z,-1.13
2023-03-11T16:47:21.884Z,-1.17
2023-03-11T16:49:53.468Z,-1.20
2023-03-11T16:52:23.098Z,-1.22
2023-03-11T16:54:51.493Z,-1.26
2023-03-11T16:57:19.454Z,-1.26
2023-03-11T16:59:47.366Z,-1.27
2023-03-11T17:02:15.497Z,-1.29
2023-03-11T17:04:43.536Z,-1.30
2023-03-11T17:07:11.868Z,-1.30
2023-03-11T17:09:39.946Z,-1.30
2023-03-11T17:12:08.279Z,-1.33
2023-03-11T17:14:36.195Z,-1.33
2023-03-11T17:17:04.280Z,-1.31
2023-03-11T17:19:32.229Z,-1.29
2023-03-11T17:22:00.456Z,-1.30
2023-03-11T17:24:29.785Z,-1.32
2023-03-11T17:26:57.747Z,-1.34
2023-03-11T17:29:25.789Z,-1.31
2023-03-11T17:31:53.818Z,-1.30
2023-03-11T17:34:21.883Z,-1.31
2023-03-11T17:36:49.945Z,-1.32
2023-03-11T17:39:18.037Z,-1.31
2023-03-11T17:41:46.768Z,-1.29
2023-03-11T17:44:15.522Z,-1.31
2023-03-11T17:46:43.631Z,-1.32
2023-03-11T17:49:14.605Z,-1.33
2023-03-11T17:51:42.683Z,-1.33
2023-03-11T17:54:10.674Z,-1.34
2023-03-11T17:56:39.171Z,-1.35
2023-03-11T17:59:07.129Z,-1.36
2023-03-11T18:01:35.308Z,-1.35
2023-03-11T18:04:03.312Z,-1.36
2023-03-11T18:06:31.563Z,-1.39
2023-03-11T18:08:59.712Z,-1.40
2023-03-11T18:11:28.426Z,-1.37
2023-03-11T18:13:56.503Z,-1.35
2023-03-11T18:16:28.785Z,-1.35
2023-03-11T18:18:58.635Z,-1.37
2023-03-11T18:21:30.237Z,-1.38
2023-03-11T18:24:00.526Z,-1.37
2023-03-11T18:26:30.090Z,-1.34
2023-03-11T18:29:00.040Z,-1.33
2023-03-11T18:31:29.758Z,-1.34
2023-03-11T18:34:03.692Z,-1.36
2023-03-11T18:36:36.145Z,-1.33
2023-03-11T18:39:05.311Z,-1.34
2023-03-11T18:41:35.540Z,-1.37
2023-03-11T18:44:04.140Z,-1.42
2023-03-11T18:46:32.907Z,-1.45
2023-03-11T18:49:03.559Z,-1.48
2023-03-11T18:51:32.898Z,-1.50
2023-03-11T18:54:02.037Z,-1.53
2023-03-11T18:56:33.643Z,-1.55
2023-03-11T18:59:01.761Z,-1.55
2023-03-11T19:01:31.068Z,-1.54
2023-03-11T19:04:00.324Z,-1.52
2023-03-11T19:06:29.701Z,-1.52
2023-03-11T19:08:58.334Z,-1.53
2023-03-11T19:11:26.571Z,-1.55
2023-03-11T19:13:55.031Z,-1.55
2023-03-11T19:16:26.081Z,-1.55
2023-03-11T19:18:55.310Z,-1.56
2023-03-11T19:21:25.938Z,-1.58
2023-03-11T19:23:55.908Z,-1.57
2023-03-11T19:26:43.744Z,-1.56
2023-03-11T19:29:14.853Z,-1.57
2023-03-11T19:31:43.919Z,-1.61
2023-03-11T19:34:12.600Z,-1.64
2023-03-11T19:36:40.858Z,-1.70
2023-03-11T19:39:09.291Z,-1.76
2023-03-11T19:41:37.905Z,-1.77
2023-03-11T19:44:07.409Z,-1.80
2023-03-11T19:46:36.478Z,-1.82
2023-03-11T19:49:04.828Z,-1.84
2023-03-11T19:51:48.695Z,-1.89
2023-03-11T19:54:19.018Z,-1.92
2023-03-11T19:56:48.213Z,-1.95
2023-03-11T19:59:16.313Z,-1.96
2023-03-11T20:01:44.440Z,-1.99
2023-03-11T20:04:12.733Z,-2.05
2023-03-11T20:06:40.866Z,-2.09
2023-03-11T20:09:09.040Z,-2.11
2023-03-11T20:11:40.822Z,-2.12
2023-03-11T20:14:10.261Z,-2.17
2023-03-11T20:16:38.443Z,-2.21
2023-03-11T20:19:07.349Z,-2.22
2023-03-11T20:21:39.412Z,-2.20
2023-03-11T20:24:08.487Z,-2.16
2023-03-11T20:26:37.549Z,-1.89
2023-03-11T20:29:06.624Z,-1.96
2023-03-11T20:31:36.446Z,-2.02
2023-03-11T20:34:04.630Z,-2.06
2023-03-11T20:36:34.012Z,-2.08
2023-03-11T20:39:03.392Z,-2.07
2023-03-11T20:41:40.281Z,-2.07
2023-03-11T20:44:11.601Z,-2.02
2023-03-11T20:46:45.570Z,-1.98
2023-03-11T20:49:22.351Z,-1.94
2023-03-11T20:51:57.462Z,-1.92
2023-03-11T20:54:30.947Z,-1.89
2023-03-11T20:57:04.354Z,-1.84
2023-03-11T20:59:32.561Z,-1.79
2023-03-11T21:02:48.387Z,-1.77
2023-03-11T21:05:16.369Z,-1.78
2023-03-11T21:07:44.802Z,-1.82
2023-03-11T21:10:13.039Z,-1.79
2023-03-11T21:12:40.993Z,-1.75
2023-03-11T21:15:10.250Z,-1.71
2023-03-11T21:17:38.465Z,-1.69
2023-03-11T21:20:06.895Z,-1.69
2023-03-11T21:22:35.182Z,-1.67
2023-03-11T21:25:03.646Z,-1.66
2023-03-11T21:27:31.668Z,-1.62
2023-03-11T21:30:00.157Z,-1.62
2023-03-11T21:32:33.515Z,-1.61
2023-03-11T21:35:02.436Z,-1.61
2023-03-11T21:37:30.560Z,-1.59
2023-03-11T21:39:58.731Z,-1.58
2023-03-11T21:42:29.346Z,-1.57
2023-03-11T21:44:57.445Z,-1.57
2023-03-11T21:47:25.553Z,-1.55
2023-03-11T21:49:53.554Z,-1.53
2023-03-11T21:52:21.725Z,-1.51
2023-03-11T21:54:49.674Z,-1.52
2023-03-11T21:57:17.575Z,-1.53
2023-03-11T22:00:08.323Z,-1.54
2023-03-11T22:02:36.914Z,-1.56
2023-03-11T22:05:05.201Z,-1.54
2023-03-11T22:07:33.423Z,-1.54
2023-03-11T22:10:01.474Z,-1.56
2023-03-11T22:12:29.556Z,-1.58
2023-03-11T22:14:57.628Z,-1.56
2023-03-11T22:17:25.752Z,-1.55
2023-03-11T22:19:53.790Z,-1.57
2023-03-11T22:22:21.839Z,-1.59
2023-03-11T22:24:49.766Z,-1.59
2023-03-11T22:27:17.701Z,-1.57
2023-03-11T22:29:45.588Z,-1.56
2023-03-11T22:32:13.734Z,-1.57
2023-03-11T22:34:43.224Z,-1.58
2023-03-11T22:37:11.125Z,-1.59
2023-03-11T22:39:39.120Z,-1.57
2023-03-11T22:42:07.317Z,-1.57
2023-03-11T22:44:35.420Z,-1.58
2023-03-11T22:47:03.517Z,-1.58
2023-03-11T22:49:31.733Z,-1.57
2023-03-11T22:51:59.759Z,-1.56
2023-03-11T22:54:27.971Z,-1.56
2023-03-11T22:56:56.257Z,-1.56
2023-03-11T22:59:27.116Z,-1.56
2023-03-11T23:02:01.031Z,-1.56
2023-03-11T23:04:29.174Z,-1.59
2023-03-11T23:06:57.136Z,-1.62
2023-03-11T23:09:25.650Z,-1.63
2023-03-11T23:11:55.415Z,-1.64
2023-03-11T23:14:28.041Z,-1.65
2023-03-11T23:17:02.145Z,-1.68
2023-03-11T23:19:30.268Z,-1.74
2023-03-11T23:21:58.270Z,-1.77
2023-03-11T23:24:26.296Z,-1.81
2023-03-11T23:26:54.177Z,-1.84
2023-03-11T23:29:22.216Z,-1.89
2023-03-11T23:31:50.160Z,-1.93
2023-03-11T23:34:18.099Z,-1.99
2023-03-11T23:36:46.022Z,-2.02
2023-03-11T23:39:13.955Z,-2.05
2023-03-11T23:41:41.891Z,-2.11
2023-03-11T23:44:09.927Z,-2.17
2023-03-11T23:46:38.037Z,-2.19
2023-03-11T23:49:06.039Z,-2.23
2023-03-11T23:51:34.014Z,-2.28
2023-03-11T23:54:01.895Z,-2.33
2023-03-11T23:56:29.868Z,-2.37
2023-03-11T23:58:57.904Z,-2.40
